Time;durP1;ratioP1;P1;durP2;ratioP2;P2;SDS_P1;SDS_P2;PMS_P1;PMS_P2;Temp;Humidity;BMP_temperature;BMP_pressure;BME280_temperature;BME280_humidity;BME280_pressure;Samples;Min_cycle;Max_cycle;Signal;HPM_P1;HPM_P2
2021/09/15 00:02:05;;;;;;;15.05;13.52;;;;;;;;;;5053065;28;20037;-78
2021/09/15 00:04:31;;;;;;;15.75;13.80;;;;;;;;;;5053513;28;20048;-78
2021/09/15 00:06:57;;;;;;;14.02;12.35;;;;;;;;;;5053470;28;20075;-78
2021/09/15 00:09:23;;;;;;;16.00;14.38;;;;;;;;;;5052751;28;20064;-78
2021/09/15 00:11:49;;;;;;;18.17;12.48;;;;;;;;;;5052863;28;20036;-78
2021/09/15 00:14:15;;;;;;;16.55;14.48;;;;;;;;;;5052965;28;20119;-77
2021/09/15 00:16:41;;;;;;;16.88;15.13;;;;;;;;;;5052910;28;20086;-78
2021/09/15 00:19:07;;;;;;;17.02;13.90;;;;;;;;;;5056523;28;20032;-78
2021/09/15 00:21:33;;;;;;;14.93;13.43;;;;;;;;;;5056982;28;20501;-78
2021/09/15 00:24:00;;;;;;;16.75;14.80;;;;;;;;;;5056635;28;20017;-78
2021/09/15 00:26:26;;;;;;;14.38;12.43;;;;;;;;;;5056891;28;20033;-78
2021/09/15 00:28:52;;;;;;;13.90;12.45;;;;;;;;;;5056745;28;20067;-78
2021/09/15 00:31:18;;;;;;;16.50;13.32;;;;;;;;;;5056853;28;20036;-78
2021/09/15 00:33:44;;;;;;;13.05;11.35;;;;;;;;;;5056650;28;20036;-78
2021/09/15 00:36:10;;;;;;;15.00;13.45;;;;;;;;;;5056429;28;20107;-78
2021/09/15 00:38:36;;;;;;;16.45;14.07;;;;;;;;;;5056597;28;20021;-78
2021/09/15 00:41:02;;;;;;;15.55;13.95;;;;;;;;;;5056149;28;20128;-78
2021/09/15 00:43:28;;;;;;;14.02;12.68;;;;;;;;;;5056235;28;20459;-78
2021/09/15 00:45:56;;;;;;;14.98;13.52;;;;;;;;;;5056372;28;20032;-78
2021/09/15 00:48:22;;;;;;;14.18;12.77;;;;;;;;;;5056381;28;20025;-78
2021/09/15 00:50:48;;;;;;;16.35;14.77;;;;;;;;;;5056408;28;20040;-78
2021/09/15 00:53:14;;;;;;;16.92;15.00;;;;;;;;;;5056296;28;20071;-78
2021/09/15 00:55:41;;;;;;;14.07;12.82;;;;;;;;;;5056038;28;20041;-78
2021/09/15 00:58:07;;;;;;;15.70;13.30;;;;;;;;;;5056019;28;20067;-78
2021/09/15 01:00:33;;;;;;;16.27;14.57;;;;;;;;;;5056259;28;20040;-78
2021/09/15 01:02:59;;;;;;;13.88;12.57;;;;;;;;;;5056206;28;20028;-78
2021/09/15 01:05:25;;;;;;;15.90;14.40;;;;;;;;;;5055899;28;20389;-78
2021/09/15 01:07:51;;;;;;;14.45;13.10;;;;;;;;;;5055888;28;20047;-78
2021/09/15 01:10:17;;;;;;;15.00;13.40;;;;;;;;;;5056087;28;20112;-78
2021/09/15 01:12:43;;;;;;;14.07;12.80;;;;;;;;;;5056596;28;20029;-78
2021/09/15 01:15:09;;;;;;;16.20;13.02;;;;;;;;;;5056459;28;20063;-78
2021/09/15 01:17:35;;;;;;;13.95;12.70;;;;;;;;;;5056120;28;20116;-78
2021/09/15 01:20:01;;;;;;;15.73;13.45;;;;;;;;;;5055727;28;20075;-77
2021/09/15 01:22:29;;;;;;;14.98;13.45;;;;;;;;;;5055922;28;20029;-77
2021/09/15 01:24:55;;;;;;;15.30;13.73;;;;;;;;;;5055824;28;20029;-78
2021/09/15 01:27:21;;;;;;;15.32;13.80;;;;;;;;;;5056085;28;20029;-78
2021/09/15 01:29:47;;;;;;;14.80;13.40;;;;;;;;;;5055038;28;20374;-78
2021/09/15 01:32:13;;;;;;;14.45;13.05;;;;;;;;;;5055444;28;20028;-78
2021/09/15 01:34:41;;;;;;;13.82;12.32;;;;;;;;;;5054697;28;20025;-80
2021/09/15 01:37:08;;;;;;;23.35;11.98;;;;;;;;;;5074923;28;20025;-79
2021/09/15 01:39:34;;;;;;;13.55;12.30;;;;;;;;;;5075573;28;20111;-81
2021/09/15 01:42:01;;;;;;;14.38;12.90;;;;;;;;;;5076935;28;20028;-79
2021/09/15 01:44:32;;;;;;;14.70;13.30;;;;;;;;;;5077493;28;20102;-81
2021/09/15 01:47:00;;;;;;;15.87;14.20;;;;;;;;;;5077926;28;20028;-79
2021/09/15 01:49:27;;;;;;;14.63;12.88;;;;;;;;;;5077323;28;20484;-78
2021/09/15 01:51:53;;;;;;;14.77;13.02;;;;;;;;;;5074881;28;20025;-80
2021/09/15 01:54:19;;;;;;;13.55;12.02;;;;;;;;;;5075771;28;20032;-80
2021/09/15 01:56:45;;;;;;;14.70;12.65;;;;;;;;;;5074022;28;20042;-79
2021/09/15 01:59:11;;;;;;;13.73;12.35;;;;;;;;;;5074745;28;20025;-79
2021/09/15 02:01:37;;;;;;;16.52;12.45;;;;;;;;;;5074957;28;20041;-79
2021/09/15 02:04:03;;;;;;;12.98;11.77;;;;;;;;;;5074729;28;20024;-79
2021/09/15 02:06:29;;;;;;;14.00;12.63;;;;;;;;;;5074873;28;20024;-79
2021/09/15 02:08:56;;;;;;;14.73;13.20;;;;;;;;;;5074641;28;20454;-79
2021/09/15 02:11:22;;;;;;;13.10;11.80;;;;;;;;;;5075131;28;20017;-79
2021/09/15 02:13:48;;;;;;;13.23;11.93;;;;;;;;;;5075020;28;20032;-79
2021/09/15 02:16:14;;;;;;;13.73;11.88;;;;;;;;;;5075061;28;20108;-79
2021/09/15 02:18:40;;;;;;;12.60;11.40;;;;;;;;;;5074847;28;20497;-79
2021/09/15 02:21:06;;;;;;;13.48;12.07;;;;;;;;;;5074304;28;20115;-79
2021/09/15 02:23:32;;;;;;;13.80;12.55;;;;;;;;;;5074362;28;20032;-79
2021/09/15 02:25:58;;;;;;;12.63;11.27;;;;;;;;;;5075084;28;20021;-79
2021/09/15 02:28:24;;;;;;;12.27;10.98;;;;;;;;;;5075084;28;20045;-79
2021/09/15 02:30:50;;;;;;;12.23;11.07;;;;;;;;;;5074569;28;20528;-79
2021/09/15 02:33:16;;;;;;;13.15;11.88;;;;;;;;;;5074508;28;20090;-79
2021/09/15 02:35:42;;;;;;;12.48;11.27;;;;;;;;;;5074215;28;20025;-79
2021/09/15 02:38:08;;;;;;;13.07;11.77;;;;;;;;;;5074054;28;20024;-79
2021/09/15 02:40:34;;;;;;;13.32;12.02;;;;;;;;;;5074057;28;20039;-78
2021/09/15 02:43:00;;;;;;;13.15;11.80;;;;;;;;;;5074414;28;20378;-79
2021/09/15 02:45:26;;;;;;;13.00;11.80;;;;;;;;;;5074388;28;20027;-79
2021/09/15 02:47:52;;;;;;;13.30;12.13;;;;;;;;;;5074058;28;20030;-79
2021/09/15 02:50:18;;;;;;;12.65;11.35;;;;;;;;;;5073766;28;20493;-79
2021/09/15 02:52:44;;;;;;;14.98;10.82;;;;;;;;;;5073804;28;20122;-79
2021/09/15 02:55:11;;;;;;;13.25;12.00;;;;;;;;;;5073781;28;20040;-79
2021/09/15 02:57:37;;;;;;;14.30;11.98;;;;;;;;;;5074056;28;20027;-78
2021/09/15 03:00:04;;;;;;;11.82;10.65;;;;;;;;;;5073966;28;20032;-79
2021/09/15 03:02:30;;;;;;;11.15;10.07;;;;;;;;;;5074069;28;20025;-79
2021/09/15 03:04:56;;;;;;;12.07;10.85;;;;;;;;;;5073663;28;20031;-79
2021/09/15 03:07:22;;;;;;;12.13;11.02;;;;;;;;;;5073504;28;20070;-79
2021/09/15 03:09:48;;;;;;;11.07;9.98;;;;;;;;;;5073786;28;20025;-79
2021/09/15 03:12:14;;;;;;;12.02;10.90;;;;;;;;;;5074308;28;20056;-79
2021/09/15 03:14:40;;;;;;;14.05;10.88;;;;;;;;;;5074173;28;20078;-79
2021/09/15 03:17:06;;;;;;;10.30;9.40;;;;;;;;;;5073524;28;20474;-79
2021/09/15 03:19:32;;;;;;;13.30;11.75;;;;;;;;;;5073868;28;20031;-79
2021/09/15 03:21:58;;;;;;;11.88;10.70;;;;;;;;;;5073301;28;20064;-79
2021/09/15 03:24:25;;;;;;;11.45;10.35;;;;;;;;;;5074148;28;20465;-79
2021/09/15 03:26:51;;;;;;;12.48;11.43;;;;;;;;;;5073848;28;20385;-79
2021/09/15 03:29:17;;;;;;;11.13;10.13;;;;;;;;;;5073452;28;20099;-79
2021/09/15 03:31:43;;;;;;;11.73;10.57;;;;;;;;;;5073524;28;20359;-79
2021/09/15 03:34:09;;;;;;;11.07;10.18;;;;;;;;;;5073376;28;20040;-79
2021/09/15 03:36:35;;;;;;;10.40;9.38;;;;;;;;;;5073103;28;20060;-79
2021/09/15 03:39:01;;;;;;;10.35;9.35;;;;;;;;;;5073949;28;20490;-79
2021/09/15 03:41:27;;;;;;;11.27;10.27;;;;;;;;;;5073452;28;20045;-78
2021/09/15 03:43:53;;;;;;;10.98;9.85;;;;;;;;;;5073275;28;20365;-79
2021/09/15 03:46:20;;;;;;;9.48;8.68;;;;;;;;;;5073727;28;20074;-79
2021/09/15 03:48:46;;;;;;;10.85;9.93;;;;;;;;;;5073198;28;20053;-79
2021/09/15 03:51:12;;;;;;;10.65;9.65;;;;;;;;;;5072938;28;20074;-81
2021/09/15 03:53:38;;;;;;;10.82;9.63;;;;;;;;;;5073288;28;20028;-79
2021/09/15 03:56:04;;;;;;;10.93;9.88;;;;;;;;;;5072844;28;20052;-80
2021/09/15 03:58:30;;;;;;;10.82;9.82;;;;;;;;;;5073559;28;20032;-79
2021/09/15 04:00:56;;;;;;;10.52;9.63;;;;;;;;;;5073207;28;20032;-80
2021/09/15 04:03:22;;;;;;;10.32;9.38;;;;;;;;;;5072968;28;20021;-80
2021/09/15 04:05:48;;;;;;;9.45;8.57;;;;;;;;;;5072725;28;20024;-81
2021/09/15 04:08:14;;;;;;;9.98;9.15;;;;;;;;;;5073251;28;20466;-80
2021/09/15 04:10:40;;;;;;;10.63;9.63;;;;;;;;;;5073193;28;20024;-79
2021/09/15 04:13:07;;;;;;;11.00;9.68;;;;;;;;;;5073425;28;20078;-79
2021/09/15 04:15:33;;;;;;;10.70;9.60;;;;;;;;;;5073389;28;20017;-80
2021/09/15 04:17:59;;;;;;;10.10;9.18;;;;;;;;;;5072791;28;20528;-80
2021/09/15 04:20:25;;;;;;;9.88;8.98;;;;;;;;;;5072855;28;20036;-80
2021/09/15 04:22:51;;;;;;;9.75;8.95;;;;;;;;;;5073450;28;20021;-80
2021/09/15 04:33:35;;;;;;;9.68;8.80;;;;;;;;;;5072189;28;20402;-80
2021/09/15 04:36:01;;;;;;;9.63;8.57;;;;;;;;;;5072735;28;20107;-80
2021/09/15 04:38:27;;;;;;;10.43;9.40;;;;;;;;;;5073108;28;20020;-80
2021/09/15 04:40:53;;;;;;;9.57;8.68;;;;;;;;;;5072731;28;20493;-79
2021/09/15 04:43:19;;;;;;;9.90;8.90;;;;;;;;;;5072698;28;20021;-79
2021/09/15 04:45:45;;;;;;;8.80;8.00;;;;;;;;;;5073104;28;20036;-79
2021/09/15 04:48:12;;;;;;;9.90;9.05;;;;;;;;;;5072612;28;20107;-80
2021/09/15 04:50:38;;;;;;;9.98;9.07;;;;;;;;;;5073049;28;20389;-80
2021/09/15 04:53:04;;;;;;;8.57;7.85;;;;;;;;;;5072619;28;20108;-80
2021/09/15 04:55:32;;;;;;;10.00;9.05;;;;;;;;;;5072798;28;20442;-80
2021/09/15 04:57:58;;;;;;;9.18;8.23;;;;;;;;;;5072094;28;20059;-80
2021/09/15 05:00:24;;;;;;;8.50;7.63;;;;;;;;;;5073180;28;20093;-80
2021/09/15 05:02:50;;;;;;;8.05;7.28;;;;;;;;;;5072625;28;20039;-79
2021/09/15 05:05:16;;;;;;;9.40;8.60;;;;;;;;;;5076401;28;20021;-79
2021/09/15 05:07:42;;;;;;;9.57;8.57;;;;;;;;;;5076017;28;20035;-80
2021/09/15 05:10:09;;;;;;;8.18;7.47;;;;;;;;;;5075597;28;20539;-80
2021/09/15 05:12:35;;;;;;;8.63;7.93;;;;;;;;;;5075740;28;20100;-80
2021/09/15 05:15:01;;;;;;;8.32;7.63;;;;;;;;;;5076529;28;20025;-80
2021/09/15 05:17:27;;;;;;;8.98;8.07;;;;;;;;;;5075905;28;20473;-80
2021/09/15 05:19:53;;;;;;;9.52;8.63;;;;;;;;;;5075675;28;20089;-80
2021/09/15 05:22:19;;;;;;;12.73;8.35;;;;;;;;;;5076127;28;20028;-80
2021/09/15 05:24:45;;;;;;;8.82;7.93;;;;;;;;;;5076000;28;20202;-80
2021/09/15 05:27:11;;;;;;;8.38;7.68;;;;;;;;;;5075683;28;20406;-80
2021/09/15 05:29:38;;;;;;;9.98;8.48;;;;;;;;;;5075903;28;20020;-80
2021/09/15 05:32:06;;;;;;;9.40;8.55;;;;;;;;;;5070357;28;20486;-78
2021/09/15 05:34:32;;;;;;;8.77;7.80;;;;;;;;;;5076196;28;20021;-77
2021/09/15 05:36:58;;;;;;;8.20;7.60;;;;;;;;;;5075207;28;20051;-79
2021/09/15 05:39:24;;;;;;;8.98;8.07;;;;;;;;;;5076337;28;20062;-79
2021/09/15 05:41:50;;;;;;;9.32;8.48;;;;;;;;;;5076029;28;20029;-81
2021/09/15 05:44:16;;;;;;;8.05;7.32;;;;;;;;;;5076965;28;20060;-78
2021/09/15 05:46:42;;;;;;;8.35;7.65;;;;;;;;;;5076068;28;20512;-79
2021/09/15 05:49:08;;;;;;;8.07;7.40;;;;;;;;;;5075424;28;20024;-78
2021/09/15 05:51:34;;;;;;;9.60;7.60;;;;;;;;;;5075953;28;20044;-80
2021/09/15 05:54:01;;;;;;;8.75;7.93;;;;;;;;;;5075777;28;20071;-78
2021/09/15 05:56:27;;;;;;;8.32;7.63;;;;;;;;;;5075048;28;20052;-78
2021/09/15 05:58:53;;;;;;;8.10;7.32;;;;;;;;;;5075314;28;20025;-79
2021/09/15 06:01:19;;;;;;;8.00;7.22;;;;;;;;;;5075889;28;20036;-80
2021/09/15 06:03:45;;;;;;;9.05;8.18;;;;;;;;;;5076485;28;20028;-81
2021/09/15 06:06:11;;;;;;;8.73;7.93;;;;;;;;;;5075812;28;20020;-79
2021/09/15 06:08:37;;;;;;;9.05;8.15;;;;;;;;;;5075019;28;20025;-79
2021/09/15 06:11:03;;;;;;;8.40;7.65;;;;;;;;;;5075310;28;20029;-77
2021/09/15 06:13:29;;;;;;;8.32;7.63;;;;;;;;;;5075899;28;20059;-78
2021/09/15 06:15:55;;;;;;;7.78;7.07;;;;;;;;;;5073763;28;20070;-80
2021/09/15 06:18:21;;;;;;;8.27;7.55;;;;;;;;;;5074310;28;20108;-76
2021/09/15 06:20:47;;;;;;;12.50;7.82;;;;;;;;;;5070992;28;20071;-79
2021/09/15 06:23:14;;;;;;;8.43;7.72;;;;;;;;;;5074975;28;20025;-80
2021/09/15 06:25:42;;;;;;;8.02;7.28;;;;;;;;;;5075037;28;20024;-82
2021/09/15 06:28:08;;;;;;;9.85;8.93;;;;;;;;;;5074940;28;20033;-82
2021/09/15 06:30:35;;;;;;;8.70;7.90;;;;;;;;;;5072803;28;20578;-82
2021/09/15 06:33:01;;;;;;;10.93;7.30;;;;;;;;;;5074640;28;20016;-82
2021/09/15 06:35:27;;;;;;;8.63;7.55;;;;;;;;;;5074337;28;20051;-80
2021/09/15 06:37:53;;;;;;;13.23;8.60;;;;;;;;;;5074125;28;20024;-80
2021/09/15 06:40:19;;;;;;;8.52;7.72;;;;;;;;;;5073917;28;20060;-80
2021/09/15 06:42:45;;;;;;;8.43;7.63;;;;;;;;;;5074240;28;20020;-80
2021/09/15 06:45:11;;;;;;;8.52;7.82;;;;;;;;;;5074816;28;20024;-81
2021/09/15 06:47:40;;;;;;;8.40;7.68;;;;;;;;;;5074384;28;20067;-81
2021/09/15 06:50:06;;;;;;;9.80;8.18;;;;;;;;;;5073871;28;20037;-81
2021/09/15 06:52:32;;;;;;;7.63;6.97;;;;;;;;;;5072760;28;20082;-80
2021/09/15 06:54:59;;;;;;;9.18;8.35;;;;;;;;;;5073825;28;20049;-82
2021/09/15 06:57:25;;;;;;;11.90;8.15;;;;;;;;;;5073629;28;20031;-85
2021/09/15 06:59:51;;;;;;;10.65;9.52;;;;;;;;;;5073547;28;20068;-83
2021/09/15 07:02:17;;;;;;;9.65;8.75;;;;;;;;;;5073586;28;20028;-80
2021/09/15 07:04:43;;;;;;;9.85;8.85;;;;;;;;;;5073320;28;20021;-80
2021/09/15 07:07:09;;;;;;;22.42;9.27;;;;;;;;;;5073632;28;20020;-82
2021/09/15 07:09:35;;;;;;;10.65;9.57;;;;;;;;;;5073613;28;20032;-79
2021/09/15 07:12:01;;;;;;;10.02;8.02;;;;;;;;;;5073219;28;20039;-81
2021/09/15 07:14:27;;;;;;;13.95;7.40;;;;;;;;;;5073303;28;20024;-79
2021/09/15 07:16:53;;;;;;;11.80;8.02;;;;;;;;;;5073222;28;20420;-80
2021/09/15 07:19:19;;;;;;;11.30;7.28;;;;;;;;;;5073432;28;20028;-79
2021/09/15 07:21:45;;;;;;;7.22;6.47;;;;;;;;;;5073222;28;20067;-80
2021/09/15 07:24:11;;;;;;;8.95;8.15;;;;;;;;;;5073070;28;20028;-80
2021/09/15 07:26:38;;;;;;;14.50;7.90;;;;;;;;;;5072754;28;20032;-78
2021/09/15 07:29:04;;;;;;;9.02;6.97;;;;;;;;;;5073436;28;20043;-80
2021/09/15 07:31:35;;;;;;;8.27;7.57;;;;;;;;;;5069431;28;20056;-81
2021/09/15 07:34:01;;;;;;;;;;;;;;;;;;5073326;28;20428;-80
2021/09/15 07:36:27;;;;;;;9.45;8.65;;;;;;;;;;5072844;28;19912;-80
2021/09/15 07:38:53;;;;;;;7.80;7.00;;;;;;;;;;5073084;28;20021;-80
2021/09/15 07:41:19;;;;;;;8.60;7.70;;;;;;;;;;5073669;28;20036;-76
2021/09/15 07:43:46;;;;;;;8.35;7.55;;;;;;;;;;5073984;28;20021;-76
2021/09/15 07:46:12;;;;;;;8.35;7.50;;;;;;;;;;5071860;28;20065;-76
2021/09/15 07:48:38;;;;;;;8.25;7.53;;;;;;;;;;5073748;28;20025;-77
2021/09/15 07:51:04;;;;;;;6.95;6.25;;;;;;;;;;5073633;28;20024;-76
2021/09/15 07:53:30;;;;;;;8.65;7.22;;;;;;;;;;5073034;28;20025;-79
2021/09/15 07:55:56;;;;;;;7.78;7.07;;;;;;;;;;5071561;28;20048;-78
2021/09/15 07:58:23;;;;;;;8.07;7.38;;;;;;;;;;5072739;28;20023;-79
2021/09/15 08:00:49;;;;;;;8.38;7.57;;;;;;;;;;5072531;28;20032;-78
2021/09/15 08:03:17;;;;;;;11.18;8.45;;;;;;;;;;5073311;28;20055;-80
2021/09/15 08:05:43;;;;;;;9.95;7.90;;;;;;;;;;5072613;28;20021;-78
2021/09/15 08:08:12;;;;;;;8.60;7.70;;;;;;;;;;5073133;28;20024;-78
2021/09/15 08:10:38;;;;;;;9.02;8.23;;;;;;;;;;5073570;28;20025;-78
2021/09/15 08:13:04;;;;;;;8.65;7.82;;;;;;;;;;5070475;28;20070;-78
2021/09/15 08:15:30;;;;;;;8.23;7.55;;;;;;;;;;5073199;28;20032;-81
2021/09/15 08:17:57;;;;;;;9.23;6.97;;;;;;;;;;5075302;28;20024;-83
2021/09/15 08:20:23;;;;;;;9.68;7.90;;;;;;;;;;5077123;28;20554;-81
2021/09/15 08:22:49;;;;;;;10.25;9.45;;;;;;;;;;5074969;28;20021;-79
2021/09/15 08:25:15;;;;;;;10.95;7.80;;;;;;;;;;5071998;28;20047;-79
2021/09/15 08:27:41;;;;;;;16.70;8.65;;;;;;;;;;5072570;28;20505;-76
2021/09/15 08:30:08;;;;;;;11.68;7.88;;;;;;;;;;5072792;28;20029;-78
2021/09/15 08:32:34;;;;;;;8.07;7.38;;;;;;;;;;5072578;28;20107;-79
2021/09/15 08:35:00;;;;;;;18.38;8.27;;;;;;;;;;5073326;28;20024;-80
2021/09/15 08:37:26;;;;;;;9.55;8.57;;;;;;;;;;5073474;28;20113;-78
2021/09/15 08:39:52;;;;;;;10.75;8.45;;;;;;;;;;5076379;28;20035;-77
2021/09/15 08:42:18;;;;;;;8.40;7.68;;;;;;;;;;5077283;28;20028;-76
2021/09/15 08:44:44;;;;;;;12.45;7.68;;;;;;;;;;5077356;28;20413;-81
2021/09/15 08:47:10;;;;;;;9.05;8.13;;;;;;;;;;5075801;28;20023;-78
2021/09/15 08:49:36;;;;;;;8.27;7.38;;;;;;;;;;5075790;28;20462;-74
2021/09/15 08:52:03;;;;;;;8.85;7.63;;;;;;;;;;5076348;28;20067;-79
2021/09/15 08:54:29;;;;;;;9.80;8.70;;;;;;;;;;5075801;28;20075;-76
2021/09/15 08:56:55;;;;;;;7.55;6.93;;;;;;;;;;5074606;28;20381;-81
2021/09/15 08:59:21;;;;;;;7.50;6.90;;;;;;;;;;5077640;28;20025;-78
2021/09/15 09:01:47;;;;;;;7.88;7.07;;;;;;;;;;5076446;28;20040;-79
2021/09/15 09:04:14;;;;;;;8.02;6.75;;;;;;;;;;5077524;28;20021;-78
2021/09/15 09:06:41;;;;;;;8.25;7.50;;;;;;;;;;5075478;28;20047;-83
2021/09/15 09:09:07;;;;;;;8.25;7.55;;;;;;;;;;5077815;28;20017;-79
2021/09/15 09:11:34;;;;;;;7.88;6.97;;;;;;;;;;5076841;28;20472;-77
2021/09/15 09:14:01;;;;;;;9.00;7.07;;;;;;;;;;5078932;28;20100;-82
2021/09/15 09:16:45;;;;;;;9.85;8.93;;;;;;;;;;5077310;28;20032;-79
2021/09/15 09:19:12;;;;;;;9.63;8.75;;;;;;;;;;5078061;28;20074;-84
2021/09/15 09:21:38;;;;;;;9.27;7.68;;;;;;;;;;5078329;28;20039;-78
2021/09/15 09:24:05;;;;;;;9.55;8.60;;;;;;;;;;5078059;28;20054;-86
2021/09/15 09:26:49;;;;;;;9.40;8.55;;;;;;;;;;5076531;28;20029;-81
2021/09/15 09:29:17;;;;;;;7.97;7.32;;;;;;;;;;5075158;28;20024;-83
2021/09/15 09:32:03;;;;;;;9.20;8.32;;;;;;;;;;5076887;28;20032;-85
2021/09/15 09:34:30;;;;;;;8.55;7.80;;;;;;;;;;5062613;28;20012;-79
2021/09/15 09:36:59;;;;;;;9.73;8.93;;;;;;;;;;5074663;28;20070;-80
2021/09/15 09:39:41;;;;;;;12.55;9.77;;;;;;;;;;5079450;28;20084;-83
2021/09/15 09:42:27;;;;;;;19.10;14.02;;;;;;;;;;5077123;28;20041;-90
2021/09/15 09:44:54;;;;;;;30.30;16.02;;;;;;;;;;5064440;28;20036;-88
2021/09/15 09:47:22;;;;;;;16.13;13.57;;;;;;;;;;5077109;28;20028;-81
2021/09/15 09:50:04;;;;;;;18.98;12.77;;;;;;;;;;5076093;28;20104;-80
2021/09/15 09:52:32;;;;;;;15.43;12.77;;;;;;;;;;5075930;28;20027;-78
2021/09/15 09:54:58;;;;;;;18.27;12.45;;;;;;;;;;5076586;28;20534;-79
2021/09/15 09:57:25;;;;;;;22.80;12.80;;;;;;;;;;5056841;28;20031;-85
2021/09/15 09:59:51;;;;;;;12.38;11.18;;;;;;;;;;5071541;28;20025;-82
2021/09/15 10:02:17;;;;;;;18.33;11.82;;;;;;;;;;5076291;28;20040;-82
2021/09/15 10:04:43;;;;;;;12.80;11.55;;;;;;;;;;5076430;28;20034;-87
2021/09/15 10:07:10;;;;;;;19.50;11.82;;;;;;;;;;5074042;28;20024;-84
2021/09/15 10:09:36;;;;;;;14.95;12.55;;;;;;;;;;5076033;28;20036;-78
2021/09/15 10:12:02;;;;;;;12.77;11.30;;;;;;;;;;5074748;28;20028;-78
2021/09/15 10:14:28;;;;;;;16.77;10.98;;;;;;;;;;5076472;28;20108;-85
2021/09/15 10:16:59;;;;;;;13.50;12.10;;;;;;;;;;5075068;28;20028;-78
2021/09/15 10:19:27;;;;;;;11.80;10.60;;;;;;;;;;5074496;28;20032;-79
2021/09/15 10:21:58;;;;;;;11.82;10.75;;;;;;;;;;5074517;28;20039;-84
2021/09/15 10:24:31;;;;;;;14.83;12.03;;;;;;;;;;5075005;28;20032;-84
2021/09/15 10:26:58;;;;;;;14.65;13.13;;;;;;;;;;5074876;28;20251;-80
2021/09/15 10:29:27;;;;;;;14.18;12.13;;;;;;;;;;5075418;28;20039;-81
2021/09/15 10:31:58;;;;;;;12.35;11.05;;;;;;;;;;5074197;28;20053;-81
2021/09/15 10:34:44;;;;;;;17.25;11.30;;;;;;;;;;5075033;28;20516;-83
2021/09/15 10:37:31;;;;;;;12.40;11.30;;;;;;;;;;5061114;28;20040;-82
2021/09/15 10:39:58;;;;;;;12.00;10.80;;;;;;;;;;5060784;28;20064;-82
2021/09/15 10:42:47;;;;;;;11.38;10.18;;;;;;;;;;5074855;28;20032;-81
2021/09/15 10:45:14;;;;;;;10.73;9.63;;;;;;;;;;5075953;28;20017;-83
2021/09/15 10:47:42;;;;;;;10.95;9.88;;;;;;;;;;5075818;28;20036;-82
2021/09/15 10:50:09;;;;;;;10.23;9.23;;;;;;;;;;5074677;28;20032;-81
2021/09/15 10:52:36;;;;;;;17.60;9.60;;;;;;;;;;5074244;28;20394;-80
2021/09/15 10:55:02;;;;;;;10.55;9.48;;;;;;;;;;5072630;28;20089;-78
2021/09/15 10:57:31;;;;;;;10.32;9.32;;;;;;;;;;5074232;28;20497;-78
2021/09/15 10:59:59;;;;;;;9.57;8.35;;;;;;;;;;5073723;28;20492;-84
2021/09/15 11:02:27;;;;;;;11.55;8.77;;;;;;;;;;5073742;28;20078;-82
2021/09/15 11:04:53;;;;;;;8.43;7.47;;;;;;;;;;5074026;28;20033;-83
2021/09/15 11:07:39;;;;;;;9.38;8.48;;;;;;;;;;5074647;28;20422;-82
2021/09/15 11:10:05;;;;;;;9.07;8.02;;;;;;;;;;5048696;28;20025;-79
2021/09/15 11:12:46;;;;;;;10.98;9.10;;;;;;;;;;5064313;28;20056;-79
2021/09/15 11:15:28;;;;;;;8.10;7.40;;;;;;;;;;5073517;28;20425;-85
2021/09/15 11:17:54;;;;;;;11.13;8.90;;;;;;;;;;5073785;28;20020;-80
2021/09/15 11:20:21;;;;;;;11.02;9.02;;;;;;;;;;5073296;28;20033;-80
2021/09/15 11:22:47;;;;;;;12.02;8.52;;;;;;;;;;5073511;28;20028;-82
2021/09/15 11:25:20;;;;;;;9.60;8.25;;;;;;;;;;5073993;28;20470;-83
2021/09/15 11:28:06;;;;;;;8.88;7.90;;;;;;;;;;5073615;28;20502;-81
2021/09/15 11:30:32;;;;;;;12.38;9.25;;;;;;;;;;5059085;28;20032;-80
2021/09/15 11:32:59;;;;;;;9.48;8.57;;;;;;;;;;5072941;28;20508;-81
2021/09/15 11:35:25;;;;;;;8.60;7.80;;;;;;;;;;5073464;28;20033;-81
2021/09/15 11:37:51;;;;;;;10.52;8.77;;;;;;;;;;5072799;28;20073;-77
2021/09/15 11:40:17;;;;;;;9.98;8.93;;;;;;;;;;5073206;28;20508;-84
2021/09/15 11:42:43;;;;;;;9.70;8.65;;;;;;;;;;5072768;28;20021;-84
2021/09/15 11:45:12;;;;;;;9.35;8.45;;;;;;;;;;5073308;28;20465;-84
2021/09/15 11:47:38;;;;;;;10.40;9.35;;;;;;;;;;5072646;28;20020;-84
2021/09/15 11:50:21;;;;;;;10.23;9.23;;;;;;;;;;5072772;28;20473;-85
2021/09/15 11:52:51;;;;;;;9.50;8.70;;;;;;;;;;5073617;28;20032;-80
2021/09/15 11:55:17;;;;;;;9.80;8.80;;;;;;;;;;5072657;28;20068;-80
2021/09/15 11:57:50;;;;;;;14.15;9.15;;;;;;;;;;5072694;28;20137;-80
2021/09/15 12:00:17;;;;;;;8.90;8.10;;;;;;;;;;5072456;28;20569;-81
2021/09/15 12:02:44;;;;;;;9.55;8.75;;;;;;;;;;5073493;28;20035;-82
2021/09/15 12:05:10;;;;;;;7.75;7.05;;;;;;;;;;5072908;28;20032;-81
2021/09/15 12:07:37;;;;;;;8.45;7.65;;;;;;;;;;5073124;28;20462;-80
2021/09/15 12:10:06;;;;;;;10.98;8.88;;;;;;;;;;5072626;28;20074;-81
2021/09/15 12:12:32;;;;;;;9.02;8.18;;;;;;;;;;5073679;28;20021;-78
2021/09/15 12:14:58;;;;;;;11.75;9.45;;;;;;;;;;5076908;28;20413;-81
2021/09/15 12:17:24;;;;;;;11.90;10.68;;;;;;;;;;5077369;28;20028;-83
2021/09/15 12:19:55;;;;;;;11.20;9.95;;;;;;;;;;5076722;28;20377;-82
2021/09/15 12:22:21;;;;;;;11.18;10.07;;;;;;;;;;5077212;28;20368;-81
2021/09/15 12:25:04;;;;;;;18.45;9.88;;;;;;;;;;5077255;28;20029;-82
2021/09/15 12:27:30;;;;;;;10.75;9.43;;;;;;;;;;5076658;28;20474;-82
2021/09/15 12:29:58;;;;;;;25.15;10.75;;;;;;;;;;5076582;28;20020;-83
2021/09/15 12:32:28;;;;;;;18.20;9.75;;;;;;;;;;5076596;28;20032;-81
2021/09/15 12:34:55;;;;;;;12.48;10.95;;;;;;;;;;5076712;28;20113;-83
2021/09/15 12:37:21;;;;;;;10.77;9.43;;;;;;;;;;5076363;28;20386;-82
2021/09/15 12:39:48;;;;;;;10.68;9.70;;;;;;;;;;5067109;28;20025;-83
2021/09/15 12:42:14;;;;;;;10.60;9.68;;;;;;;;;;5056063;28;20128;-70
2021/09/15 12:44:40;;;;;;;12.55;11.25;;;;;;;;;;5056858;28;20071;-76
2021/09/15 12:47:06;;;;;;;12.55;11.20;;;;;;;;;;5056890;28;20021;-76
2021/09/15 12:49:34;;;;;;;13.30;10.82;;;;;;;;;;5056611;28;20056;-77
2021/09/15 12:52:01;;;;;;;14.88;12.60;;;;;;;;;;5056254;28;20021;-82
2021/09/15 12:54:27;;;;;;;11.60;10.45;;;;;;;;;;5056220;28;20119;-75
2021/09/15 12:56:53;;;;;;;13.02;9.77;;;;;;;;;;5055997;28;20025;-75
2021/09/15 12:59:27;;;;;;;21.00;11.15;;;;;;;;;;5056270;28;20108;-75
2021/09/15 13:02:13;;;;;;;10.68;9.77;;;;;;;;;;5055899;28;20033;-75
2021/09/15 13:04:39;;;;;;;11.23;10.18;;;;;;;;;;5041314;28;20029;-80
2021/09/15 13:07:05;;;;;;;11.95;10.68;;;;;;;;;;5055412;28;20155;-79
2021/09/15 13:09:31;;;;;;;11.75;10.63;;;;;;;;;;5056015;28;20090;-80
2021/09/15 13:11:57;;;;;;;11.70;10.60;;;;;;;;;;5055694;28;20382;-81
2021/09/15 13:14:23;;;;;;;11.25;10.05;;;;;;;;;;5056448;28;20113;-82
2021/09/15 13:16:49;;;;;;;10.25;9.32;;;;;;;;;;5055584;28;20032;-80
2021/09/15 13:19:15;;;;;;;11.05;10.05;;;;;;;;;;5055791;28;20429;-78
2021/09/15 13:21:41;;;;;;;13.00;11.77;;;;;;;;;;5056030;28;20037;-81
2021/09/15 13:24:08;;;;;;;12.05;10.00;;;;;;;;;;5054845;28;20393;-80
2021/09/15 13:26:34;;;;;;;11.13;10.10;;;;;;;;;;5055377;28;20025;-81
2021/09/15 13:29:01;;;;;;;10.25;9.35;;;;;;;;;;5055488;28;20116;-81
2021/09/15 13:31:27;;;;;;;9.88;8.82;;;;;;;;;;5055746;28;20029;-79
2021/09/15 13:33:54;;;;;;;11.18;10.20;;;;;;;;;;5055243;28;20037;-81
2021/09/15 13:36:20;;;;;;;11.82;9.05;;;;;;;;;;5055053;28;20489;-79
2021/09/15 13:38:46;;;;;;;10.32;9.32;;;;;;;;;;5054846;28;20037;-81
2021/09/15 13:41:12;;;;;;;8.90;7.95;;;;;;;;;;5055660;28;20115;-79
2021/09/15 13:43:38;;;;;;;10.73;9.50;;;;;;;;;;5055269;28;20047;-78
2021/09/15 13:46:04;;;;;;;10.98;9.88;;;;;;;;;;5055382;28;20114;-80
2021/09/15 13:48:31;;;;;;;9.90;8.95;;;;;;;;;;5055660;28;20074;-77
2021/09/15 13:50:57;;;;;;;9.45;8.55;;;;;;;;;;5054942;28;20071;-79
2021/09/15 13:53:23;;;;;;;10.20;9.18;;;;;;;;;;5055017;28;20035;-77
2021/09/15 13:55:49;;;;;;;10.15;9.18;;;;;;;;;;5055824;28;20139;-76
2021/09/15 13:58:15;;;;;;;17.33;10.70;;;;;;;;;;5068083;28;20082;-79
2021/09/15 14:00:41;;;;;;;13.70;9.20;;;;;;;;;;5075204;28;20425;-74
2021/09/15 14:03:07;;;;;;;17.65;9.80;;;;;;;;;;5074620;28;20474;-75
2021/09/15 14:05:34;;;;;;;20.90;9.65;;;;;;;;;;5073887;28;20525;-78
2021/09/15 14:08:00;;;;;;;11.85;8.95;;;;;;;;;;5074994;28;20070;-81
2021/09/15 14:10:26;;;;;;;9.77;8.93;;;;;;;;;;5075742;28;20093;-78
2021/09/15 14:12:52;;;;;;;8.65;7.90;;;;;;;;;;5076776;28;20462;-77
2021/09/15 14:15:18;;;;;;;8.57;7.78;;;;;;;;;;5075973;28;20099;-78
2021/09/15 14:17:45;;;;;;;8.30;7.60;;;;;;;;;;5075950;28;20099;-81
2021/09/15 14:20:11;;;;;;;9.07;8.27;;;;;;;;;;5076855;28;20020;-82
2021/09/15 14:22:37;;;;;;;9.43;7.30;;;;;;;;;;5073428;28;20052;-77
2021/09/15 14:25:04;;;;;;;15.95;8.25;;;;;;;;;;5075775;28;20021;-77
2021/09/15 14:27:30;;;;;;;8.38;7.68;;;;;;;;;;5074939;28;20445;-76
2021/09/15 14:29:56;;;;;;;9.27;8.38;;;;;;;;;;5075580;28;20012;-82
2021/09/15 14:32:22;;;;;;;10.77;7.57;;;;;;;;;;5076559;28;20021;-79
2021/09/15 14:34:48;;;;;;;8.07;7.43;;;;;;;;;;5074586;28;20087;-81
2021/09/15 14:37:14;;;;;;;8.25;7.50;;;;;;;;;;5072124;28;20024;-79
2021/09/15 14:39:40;;;;;;;8.73;7.93;;;;;;;;;;5075509;28;20020;-79